Time;durP1;ratioP1;P1;durP2;ratioP2;P2;SDS_P1;SDS_P2;PMS_P1;PMS_P2;Temp;Humidity;BMP_temperature;BMP_pressure;BME280_temperature;BME280_humidity;BME280_pressure;Samples;Min_cycle;Max_cycle;Signal;HPM_P1;HPM_P2
2021/01/05 00:02:26;;;;;;;2.03;0.80;;;;;;;4.74;100.00;102079.67;1806231;79;26679;-79
2021/01/05 00:04:56;;;;;;;2.80;0.90;;;;;;;4.81;100.00;102091.49;1806162;78;26229;-78
2021/01/05 00:07:26;;;;;;;2.03;0.90;;;;;;;4.83;100.00;102088.86;1806314;79;26708;-79
2021/01/05 00:09:56;;;;;;;3.83;1.00;;;;;;;4.73;100.00;102091.73;1806269;79;26802;-79
2021/01/05 00:12:26;;;;;;;4.20;1.07;;;;;;;4.63;100.00;102094.08;1806296;79;26216;-79
2021/01/05 00:14:56;;;;;;;2.70;0.90;;;;;;;4.67;100.00;102092.58;1806313;79;26745;-79
2021/01/05 00:17:26;;;;;;;2.40;0.90;;;;;;;4.66;100.00;102086.79;1806363;79;26647;-79
2021/01/05 00:19:56;;;;;;;3.80;0.93;;;;;;;4.67;100.00;102087.08;1806321;79;26232;-80
2021/01/05 00:22:26;;;;;;;2.80;1.00;;;;;;;4.66;100.00;102086.79;1806334;78;26306;-79
2021/01/05 00:24:56;;;;;;;1.83;0.80;;;;;;;4.63;100.00;102090.80;1806338;79;26231;-79
2021/01/05 00:27:25;;;;;;;2.07;1.10;;;;;;;4.59;100.00;102097.27;1806339;79;26411;-79
2021/01/05 00:29:55;;;;;;;1.80;0.97;;;;;;;4.66;100.00;102091.77;1806300;79;26813;-79
2021/01/05 00:32:25;;;;;;;1.90;0.90;;;;;;;4.69;100.00;102089.10;1806353;79;26705;-79
2021/01/05 00:34:55;;;;;;;3.57;0.93;;;;;;;4.64;100.00;102091.65;1806328;79;26644;-79
2021/01/05 00:37:25;;;;;;;3.00;0.77;;;;;;;4.61;100.00;102095.69;1806254;79;26235;-79
2021/01/05 00:39:55;;;;;;;5.27;1.10;;;;;;;4.66;100.00;102090.92;1806327;79;26244;-79
2021/01/05 00:42:25;;;;;;;4.10;1.20;;;;;;;4.62;100.00;102091.84;1806281;79;26236;-79
2021/01/05 00:44:55;;;;;;;1.50;0.90;;;;;;;4.59;100.00;102097.27;1806225;79;26900;-79
2021/01/05 00:47:25;;;;;;;1.43;0.80;;;;;;;4.58;100.00;102095.57;1806278;79;26671;-79
2021/01/05 00:49:55;;;;;;;3.50;0.90;;;;;;;4.57;100.00;102095.28;1806355;79;26306;-79
2021/01/05 00:52:25;;;;;;;3.63;1.00;;;;;;;4.62;100.00;102082.78;1806212;79;26224;-79
2021/01/05 00:54:55;;;;;;;3.87;1.23;;;;;;;4.64;100.00;102088.89;1806308;79;26668;-78
2021/01/05 00:57:25;;;;;;;5.63;1.00;;;;;;;4.60;100.00;102080.23;1806319;79;26671;-79
2021/01/05 00:59:54;;;;;;;2.43;0.80;;;;;;;4.65;100.00;102085.94;1806339;79;26232;-79
2021/01/05 01:02:25;;;;;;;3.10;1.03;;;;;;;4.60;100.00;102091.23;1806267;79;26274;-78
2021/01/05 01:04:54;;;;;;;2.83;1.87;;;;;;;4.59;100.00;102076.63;1806282;79;26224;-78
2021/01/05 01:07:25;;;;;;;2.53;0.80;;;;;;;4.51;100.00;102076.87;1806204;77;26715;-78
2021/01/05 01:09:55;;;;;;;1.77;0.80;;;;;;;4.54;100.00;102081.93;1806324;79;26228;-78
2021/01/05 01:12:26;;;;;;;4.07;0.83;;;;;;;4.60;100.00;102081.61;1806315;79;26404;-78
2021/01/05 01:14:56;;;;;;;3.50;1.00;;;;;;;4.54;100.00;102075.05;1806270;79;26314;-78
2021/01/05 01:17:28;;;;;;;1.63;1.00;;;;;;;4.62;100.00;102075.34;1806304;79;26232;-79
2021/01/05 01:19:58;;;;;;;1.90;1.20;;;;;;;4.72;100.00;102073.52;1806228;79;26383;-78
2021/01/05 01:22:28;;;;;;;1.63;0.60;;;;;;;4.66;100.00;102069.75;1806184;78;26290;-78
2021/01/05 01:24:57;;;;;;;3.13;0.60;;;;;;;4.68;100.00;102075.02;1806208;79;26235;-78
2021/01/05 01:27:28;;;;;;;2.80;0.90;;;;;;;4.66;100.00;102075.25;1806302;79;26243;-79
2021/01/05 01:29:58;;;;;;;5.60;1.27;;;;;;;4.69;100.00;102075.34;1806203;79;26329;-78
2021/01/05 01:32:27;;;;;;;3.47;1.03;;;;;;;4.65;100.00;102072.70;1806248;79;26235;-78
2021/01/05 01:34:57;;;;;;;3.03;0.93;;;;;;;4.69;100.00;102077.56;1806229;79;26302;-78
2021/01/05 01:37:27;;;;;;;4.53;1.03;;;;;;;4.65;100.00;102073.55;1806186;79;26239;-79
2021/01/05 01:39:57;;;;;;;4.10;0.90;;;;;;;4.66;100.00;102072.50;1806269;79;26239;-78
2021/01/05 01:42:28;;;;;;;2.03;0.67;;;;;;;4.59;100.00;102075.26;1806293;79;26243;-78
2021/01/05 01:44:58;;;;;;;4.43;1.10;;;;;;;4.56;100.00;102070.19;1806287;79;26232;-78
2021/01/05 01:47:31;;;;;;;3.30;1.00;;;;;;;4.49;100.00;102080.91;1806254;79;26228;-78
2021/01/05 01:50:05;;;;;;;2.10;1.03;;;;;;;4.55;100.00;102074.52;1806183;79;26228;-78
2021/01/05 01:53:11;;;;;;;3.17;1.10;;;;;;;4.50;100.00;102082.58;1806372;79;26228;-79
2021/01/05 01:55:45;;;;;;;2.30;0.90;;;;;;;4.55;100.00;102078.66;1806311;79;26231;-77
2021/01/05 01:58:40;;;;;;;4.07;1.40;;;;;;;4.55;100.00;102078.66;1806027;79;26217;-77
2021/01/05 02:01:18;;;;;;;3.17;0.80;;;;;;;4.59;100.00;102077.16;1799315;79;26738;-77
2021/01/05 02:04:26;;;;;;;3.07;1.03;;;;;;;4.58;100.00;102079.06;1805819;79;26220;-77
2021/01/05 02:07:20;;;;;;;2.67;1.10;;;;;;;4.50;100.00;102075.70;1806056;78;26326;-78
2021/01/05 02:10:18;;;;;;;3.87;1.20;;;;;;;4.54;100.00;102079.18;1806286;79;26652;-79
2021/01/05 02:12:59;;;;;;;2.53;0.90;;;;;;;4.43;100.00;102072.97;1800548;79;26240;-78
2021/01/05 02:15:32;;;;;;;5.17;0.80;;;;;;;4.55;100.00;102080.87;1806335;79;26342;-78
2021/01/05 02:18:37;;;;;;;1.53;0.73;;;;;;;4.58;100.00;102080.44;1806318;79;26231;-78
2021/01/05 02:21:09;;;;;;;1.57;0.80;;;;;;;4.57;100.00;102075.17;1805980;79;26302;-77
2021/01/05 02:23:45;;;;;;;2.10;0.90;;;;;;;4.54;100.00;102079.70;1806147;78;26263;-78
2021/01/05 02:26:19;;;;;;;4.73;1.00;;;;;;;4.54;100.00;102077.80;1806075;79;26267;-79
2021/01/05 02:28:52;;;;;;;3.40;1.10;;;;;;;4.40;100.00;102073.94;1806143;79;26224;-78
2021/01/05 02:31:34;;;;;;;3.73;1.00;;;;;;;4.56;100.00;102071.56;1806093;79;26224;-79
2021/01/05 02:34:07;;;;;;;2.97;1.10;;;;;;;4.54;100.00;102076.95;1805970;79;26305;-78
2021/01/05 02:36:52;;;;;;;4.53;1.00;;;;;;;4.50;100.00;102068.81;1806287;79;26314;-78
2021/01/05 02:39:55;;;;;;;5.63;1.07;;;;;;;4.52;100.00;102070.84;1806207;79;26224;-79
2021/01/05 02:42:51;;;;;;;1.97;0.73;;;;;;;4.46;100.00;102067.03;1806149;79;26236;-78
2021/01/05 02:45:24;;;;;;;3.90;1.00;;;;;;;4.49;100.00;102067.97;1806148;79;26282;-77
2021/01/05 02:48:22;;;;;;;5.07;1.10;;;;;;;4.51;100.00;102072.74;1806184;79;26243;-78
2021/01/05 02:51:35;;;;;;;2.77;1.00;;;;;;;4.50;100.00;102075.17;1806189;79;26700;-78
2021/01/05 02:54:21;;;;;;;1.53;0.80;;;;;;;4.43;100.00;102071.60;1806028;79;26670;-78
2021/01/05 02:57:12;;;;;;;2.40;0.73;;;;;;;4.39;100.00;102066.73;1812759;79;26232;-78
2021/01/05 03:00:12;;;;;;;2.83;0.93;;;;;;;4.47;100.00;102072.86;1806173;79;26671;-77
2021/01/05 03:03:21;;;;;;;2.53;0.87;;;;;;;4.49;100.00;102067.97;1803965;79;26357;-77
2021/01/05 03:06:11;;;;;;;4.53;0.90;;;;;;;4.37;100.00;102083.97;1798867;79;26373;-77
2021/01/05 03:08:44;;;;;;;3.83;1.10;;;;;;;4.40;100.00;102080.30;1806255;77;26259;-77
2021/01/05 03:11:17;;;;;;;2.37;0.87;;;;;;;4.48;100.00;102071.80;1806219;79;26776;-77
2021/01/05 03:13:53;;;;;;;2.33;1.00;;;;;;;4.50;100.00;102078.45;1806216;79;26220;-78
2021/01/05 03:16:26;;;;;;;2.20;0.87;;;;;;;4.47;100.00;102078.88;1806277;79;26224;-78
2021/01/05 03:19:03;;;;;;;3.07;1.03;;;;;;;4.47;100.00;102077.52;1806159;79;26216;-77
2021/01/05 03:21:36;;;;;;;4.60;0.80;;;;;;;4.43;100.00;102074.34;1805751;79;26232;-77
2021/01/05 03:24:09;;;;;;;4.27;0.90;;;;;;;4.40;100.00;102078.92;1806236;78;26350;-77
2021/01/05 03:26:42;;;;;;;4.60;1.00;;;;;;;4.42;100.00;102078.16;1806241;79;26298;-77
2021/01/05 03:29:14;;;;;;;5.60;0.90;;;;;;;4.35;100.00;102077.86;1806321;79;26227;-77
2021/01/05 03:31:48;;;;;;;2.50;0.90;;;;;;;4.30;100.00;102077.65;1806339;79;26326;-77
2021/01/05 03:34:18;;;;;;;2.97;1.00;;;;;;;4.35;100.00;102081.45;1806197;79;26715;-76
2021/01/05 03:36:49;;;;;;;4.37;1.47;;;;;;;4.31;100.00;102080.20;1806328;79;26745;-76
2021/01/05 03:39:19;;;;;;;5.23;0.90;;;;;;;4.31;100.00;102080.72;1806307;79;26311;-77
2021/01/05 03:41:49;;;;;;;6.37;1.20;;;;;;;4.44;100.00;102071.07;1806115;79;26856;-76
2021/01/05 03:44:19;;;;;;;4.10;1.10;;;;;;;4.43;100.00;102073.50;1806105;79;26298;-77
2021/01/05 03:46:49;;;;;;;3.13;0.77;;;;;;;4.41;100.00;102064.08;1806173;79;26648;-77
2021/01/05 03:49:19;;;;;;;3.70;1.30;;;;;;;4.46;100.00;102069.78;1806178;79;26676;-76
2021/01/05 03:51:49;;;;;;;3.40;0.90;;;;;;;4.37;100.00;102069.69;1806183;79;26752;-77
2021/01/05 03:54:18;;;;;;;2.83;0.70;;;;;;;4.38;100.00;102066.41;1806227;79;26725;-78
2021/01/05 03:56:49;;;;;;;3.57;0.90;;;;;;;4.39;100.00;102055.20;1806205;79;26675;-77
2021/01/05 03:59:19;;;;;;;3.70;1.33;;;;;;;4.37;100.00;102055.09;1806211;79;26691;-77
2021/01/05 04:01:54;;;;;;;4.87;1.20;;;;;;;4.32;100.00;102061.23;1806161;79;26745;-77
2021/01/05 04:04:23;;;;;;;3.70;0.90;;;;;;;4.28;100.00;102063.28;1806166;79;26651;-77
2021/01/05 04:06:54;;;;;;;1.60;0.80;;;;;;;4.25;100.00;102065.91;1806169;79;26672;-77
2021/01/05 04:09:23;;;;;;;4.73;1.00;;;;;;;4.16;100.00;102060.31;1806094;78;26352;-77
2021/01/05 04:11:54;;;;;;;5.90;1.03;;;;;;;4.21;100.00;102054.17;1806148;79;26231;-77
2021/01/05 04:14:23;;;;;;;3.30;1.23;;;;;;;4.25;100.00;102056.28;1806198;79;26788;-76
2021/01/05 04:16:53;;;;;;;5.07;1.20;;;;;;;4.24;100.00;102055.11;1806289;79;26332;-77
2021/01/05 04:19:23;;;;;;;3.43;1.73;;;;;;;4.24;100.00;102055.11;1806251;79;26228;-77
2021/01/05 04:21:54;;;;;;;4.47;0.90;;;;;;;4.11;100.00;102053.23;1806281;79;26283;-77
2021/01/05 04:24:25;;;;;;;4.70;1.30;;;;;;;4.12;100.00;102059.91;1806291;78;26730;-77
2021/01/05 04:26:55;;;;;;;3.03;1.20;;;;;;;4.04;100.00;102056.53;1806205;79;26364;-77
2021/01/05 04:29:25;;;;;;;6.40;1.50;;;;;;;4.17;100.00;102057.89;1806215;79;26224;-77
2021/01/05 04:31:55;;;;;;;7.73;1.30;;;;;;;4.06;100.00;102059.36;1806084;79;26220;-77
2021/01/05 04:34:25;;;;;;;2.20;1.20;;;;;;;3.99;100.00;102064.56;1806099;79;26224;-77
2021/01/05 04:36:55;;;;;;;4.10;1.50;;;;;;;4.00;100.00;102059.38;1806202;79;26679;-77
2021/01/05 04:39:25;;;;;;;4.43;1.07;;;;;;;3.97;100.00;102059.82;1806150;79;26339;-77
2021/01/05 04:41:58;;;;;;;4.50;1.00;;;;;;;3.90;100.00;102060.33;1806151;79;26220;-77
2021/01/05 04:44:31;;;;;;;2.73;1.00;;;;;;;3.90;100.00;102063.08;1806124;79;26667;-77
2021/01/05 04:47:07;;;;;;;2.87;1.03;;;;;;;3.93;100.00;102061.30;1806132;79;26325;-77
2021/01/05 04:50:09;;;;;;;1.73;0.80;;;;;;;3.92;100.00;102060.98;1805135;79;26205;-77
2021/01/05 04:52:46;;;;;;;4.23;1.20;;;;;;;3.84;100.00;102055.70;1806149;79;26303;-77
2021/01/05 04:55:29;;;;;;;1.33;0.80;;;;;;;3.97;100.00;102057.92;1806240;79;26706;-77
2021/01/05 04:58:08;;;;;;;4.13;0.90;;;;;;;4.08;100.00;102053.66;1805160;79;26218;-77
2021/01/05 05:00:39;;;;;;;2.13;0.90;;;;;;;4.01;100.00;102057.81;1794448;78;930475;-77
2021/01/05 05:03:15;;;;;;;3.70;1.03;;;;;;;3.95;100.00;102063.30;1806183;79;26232;-78
2021/01/05 05:06:04;;;;;;;2.67;0.87;;;;;;;3.99;100.00;102065.94;1806097;79;26333;-77
2021/01/05 05:08:40;;;;;;;3.97;1.00;;;;;;;3.92;100.00;102063.20;1806142;77;26683;-77
2021/01/05 05:11:13;;;;;;;2.23;1.20;;;;;;;3.90;100.00;102060.33;1805448;79;26224;-77
2021/01/05 05:13:59;;;;;;;1.37;0.63;;;;;;;3.80;100.00;102062.67;1806327;79;26725;-77
2021/01/05 05:16:43;;;;;;;5.10;0.90;;;;;;;3.64;100.00;102063.91;1806250;79;26220;-78
2021/01/05 05:19:21;;;;;;;1.93;1.00;;;;;;;3.69;100.00;102071.00;1806137;79;26215;-77
2021/01/05 05:21:55;;;;;;;4.40;1.10;;;;;;;3.72;100.00;102072.50;1805684;79;26243;-76
2021/01/05 05:24:31;;;;;;;3.40;1.23;;;;;;;3.77;100.00;102070.80;1805938;78;26727;-77
2021/01/05 05:27:04;;;;;;;2.20;0.80;;;;;;;3.73;100.00;102068.67;1806274;79;26702;-77
2021/01/05 05:29:41;;;;;;;2.77;0.80;;;;;;;3.72;100.00;102068.38;1806099;79;26290;-76
2021/01/05 05:32:15;;;;;;;4.90;1.10;;;;;;;3.72;100.00;102067.86;1806337;79;26217;-78
2021/01/05 05:34:53;;;;;;;3.23;0.90;;;;;;;3.73;100.00;102061.28;1806108;79;26711;-77
2021/01/05 05:37:48;;;;;;;3.33;0.80;;;;;;;3.76;100.00;102067.75;1806000;79;26334;-77
2021/01/05 05:40:24;;;;;;;3.67;1.10;;;;;;;3.77;100.00;102065.82;1805806;79;26667;-78
2021/01/05 05:43:34;;;;;;;2.20;0.70;;;;;;;3.80;100.00;102056.66;1806139;79;26232;-77
2021/01/05 05:46:07;;;;;;;5.13;0.97;;;;;;;3.77;100.00;102057.58;1803874;79;26769;-77
2021/01/05 05:48:42;;;;;;;3.73;0.90;;;;;;;3.75;100.00;102056.44;1806189;79;26244;-78
2021/01/05 05:51:16;;;;;;;5.50;1.17;;;;;;;3.73;100.00;102061.80;1806290;79;26730;-77
2021/01/05 05:53:49;;;;;;;1.13;0.60;;;;;;;3.69;100.00;102057.27;1806366;79;26306;-77
2021/01/05 05:56:22;;;;;;;6.70;1.30;;;;;;;3.61;100.00;102062.97;1806011;79;26228;-78
2021/01/05 05:58:55;;;;;;;4.03;1.10;;;;;;;3.61;100.00;102056.95;1805435;79;26309;-77
2021/01/05 06:01:30;;;;;;;2.87;1.00;;;;;;;3.62;100.00;102071.53;1806074;79;26228;-77
2021/01/05 06:04:01;;;;;;;1.53;0.80;;;;;;;3.61;100.00;102070.69;1806095;79;26228;-78
2021/01/05 06:06:33;;;;;;;4.00;1.17;;;;;;;3.58;100.00;102068.37;1806180;79;26346;-77
2021/01/05 06:09:03;;;;;;;3.30;1.00;;;;;;;3.49;100.00;102073.73;1806126;78;26290;-76
2021/01/05 06:11:34;;;;;;;3.63;1.00;;;;;;;3.58;100.00;102073.02;1806219;79;26301;-77
2021/01/05 06:14:04;;;;;;;4.20;1.03;;;;;;;3.51;100.00;102075.73;1806260;79;26236;-77
2021/01/05 06:16:35;;;;;;;4.83;1.63;;;;;;;3.53;100.00;102073.64;1806197;79;26232;-77
2021/01/05 06:19:05;;;;;;;5.50;1.00;;;;;;;3.54;100.00;102079.45;1806214;79;26298;-77
2021/01/05 06:21:35;;;;;;;3.67;1.07;;;;;;;3.53;100.00;102073.64;1806205;79;26216;-77
2021/01/05 06:24:08;;;;;;;5.30;1.53;;;;;;;3.60;100.00;102080.50;1806117;78;26281;-78
2021/01/05 06:26:38;;;;;;;4.30;1.10;;;;;;;3.58;100.00;102079.36;1806260;79;26714;-77
2021/01/05 06:29:08;;;;;;;4.97;1.10;;;;;;;3.65;100.00;102077.45;1806231;79;26302;-78
2021/01/05 06:31:37;;;;;;;2.93;0.97;;;;;;;3.60;100.00;102082.72;1806207;79;26228;-76
2021/01/05 06:34:07;;;;;;;2.03;1.03;;;;;;;3.66;100.00;102087.39;1806308;79;26236;-76
2021/01/05 06:36:37;;;;;;;3.90;1.07;;;;;;;3.71;100.00;102087.29;1806322;79;26235;-76
2021/01/05 06:39:07;;;;;;;4.93;1.60;;;;;;;3.78;100.00;102079.89;1806246;79;27090;-76
2021/01/05 06:41:37;;;;;;;3.57;1.23;;;;;;;3.89;100.00;102083.40;1806200;79;26240;-77
2021/01/05 06:44:07;;;;;;;2.87;1.17;;;;;;;3.79;100.00;102091.20;1806246;79;26239;-77
2021/01/05 06:46:37;;;;;;;5.43;1.20;;;;;;;3.87;100.00;102084.13;1806318;79;26310;-82
2021/01/05 06:49:08;;;;;;;5.63;1.47;;;;;;;3.82;100.00;102090.77;1806440;79;26301;-76
2021/01/05 06:51:38;;;;;;;4.77;1.93;;;;;;;3.87;100.00;102089.09;1806256;79;26236;-80
2021/01/05 06:54:08;;;;;;;3.03;1.17;;;;;;;3.82;100.00;102090.25;1806269;79;26310;-78
2021/01/05 06:56:50;;;;;;;4.30;1.30;;;;;;;3.96;100.00;102093.86;1806319;79;26667;-77
2021/01/05 06:59:22;;;;;;;4.30;1.40;;;;;;;3.96;100.00;102096.60;1806324;79;26244;-77
2021/01/05 07:01:54;;;;;;;4.00;1.40;;;;;;;3.93;100.00;102098.41;1806209;79;26302;-81
2021/01/05 07:04:25;;;;;;;6.47;1.40;;;;;;;3.87;100.00;102106.11;1806192;79;26648;-77
2021/01/05 07:06:57;;;;;;;3.03;0.90;;;;;;;3.88;100.00;102116.06;1806272;79;26298;-76
2021/01/05 07:09:27;;;;;;;5.57;1.40;;;;;;;3.85;100.00;102116.48;1806209;79;26338;-77
2021/01/05 07:11:57;;;;;;;3.30;1.57;;;;;;;3.94;100.00;102106.95;1806314;78;26341;-77
2021/01/05 07:14:28;;;;;;;6.93;1.77;;;;;;;3.94;100.00;102111.07;1806203;79;26224;-78
2021/01/05 07:16:58;;;;;;;4.00;1.50;;;;;;;3.89;100.00;102113.64;1806279;79;26287;-79
2021/01/05 07:19:28;;;;;;;2.80;1.20;;;;;;;3.98;100.00;102109.62;1806384;79;26302;-81
2021/01/05 07:21:58;;;;;;;4.43;1.37;;;;;;;3.94;100.00;102111.92;1806355;79;26672;-80
2021/01/05 07:24:27;;;;;;;2.87;1.27;;;;;;;3.88;100.00;102100.94;1806089;78;26542;-78
2021/01/05 07:26:58;;;;;;;4.03;1.73;;;;;;;3.93;100.00;102109.41;1806308;79;26228;-78
2021/01/05 07:29:28;;;;;;;2.50;1.23;;;;;;;3.85;100.00;102103.56;1806237;79;26309;-76
2021/01/05 07:31:58;;;;;;;3.60;1.10;;;;;;;3.94;100.00;102107.80;1806190;79;26220;-77
2021/01/05 07:34:28;;;;;;;1.87;1.10;;;;;;;3.91;100.00;102107.38;1806222;79;26239;-76
2021/01/05 07:37:02;;;;;;;6.87;1.20;;;;;;;3.98;100.00;102106.31;1806258;79;26303;-77
2021/01/05 07:39:34;;;;;;;3.23;1.00;;;;;;;3.92;100.00;102104.95;1806387;79;26648;-77
2021/01/05 07:42:33;;;;;;;4.13;1.20;;;;;;;3.96;100.00;102097.45;1806247;79;26660;-79
2021/01/05 07:45:05;;;;;;;3.97;1.50;;;;;;;4.01;100.00;102103.70;1795338;79;26703;-79
2021/01/05 07:47:37;;;;;;;3.47;1.30;;;;;;;3.98;100.00;102109.06;1806291;79;26244;-78
2021/01/05 07:50:10;;;;;;;7.20;1.47;;;;;;;4.06;100.00;102110.23;1806269;79;26236;-76
2021/01/05 07:52:42;;;;;;;6.40;1.23;;;;;;;4.13;100.00;102106.97;1805691;79;26302;-76
2021/01/05 07:55:15;;;;;;;6.10;1.37;;;;;;;4.03;100.00;102113.41;1806251;79;26346;-76
2021/01/05 07:57:45;;;;;;;3.23;1.40;;;;;;;3.95;100.00;102114.15;1806211;79;26682;-77
2021/01/05 08:00:19;;;;;;;4.60;1.63;;;;;;;4.06;100.00;102116.28;1806311;79;26306;-77
2021/01/05 08:02:49;;;;;;;2.73;0.93;;;;;;;4.03;100.00;102116.16;1806260;79;26345;-76
2021/01/05 08:05:21;;;;;;;3.57;1.30;;;;;;;4.03;100.00;102119.44;1806194;79;26247;-76
2021/01/05 08:07:52;;;;;;;3.23;1.00;;;;;;;4.03;100.00;102118.06;1806224;79;26227;-76
2021/01/05 08:10:24;;;;;;;1.57;0.80;;;;;;;4.03;100.00;102120.28;1806248;79;26225;-77
2021/01/05 08:12:55;;;;;;;2.03;0.80;;;;;;;4.06;100.00;102119.03;1806224;77;26289;-77
2021/01/05 08:15:29;;;;;;;4.07;1.10;;;;;;;4.13;100.00;102116.59;1806242;79;26232;-76
2021/01/05 08:18:00;;;;;;;3.87;1.50;;;;;;;4.16;100.00;102115.31;1806218;79;26235;-77
2021/01/05 08:20:32;;;;;;;2.40;1.00;;;;;;;4.03;100.00;102128.53;1806183;79;26707;-75
2021/01/05 08:23:04;;;;;;;1.97;0.90;;;;;;;4.06;100.00;102125.35;1806353;78;26357;-76
2021/01/05 08:25:34;;;;;;;5.03;1.47;;;;;;;4.14;100.00;102129.81;1806278;79;26691;-75
2021/01/05 08:28:05;;;;;;;4.07;0.97;;;;;;;4.08;100.00;102127.38;1806427;79;26229;-76
2021/01/05 08:30:38;;;;;;;4.60;1.17;;;;;;;4.13;100.00;102126.74;1806354;79;26338;-75
2021/01/05 08:33:12;;;;;;;4.03;1.30;;;;;;;4.15;100.00;102129.30;1806300;79;26313;-76
2021/01/05 08:35:41;;;;;;;3.30;1.23;;;;;;;4.13;100.00;102134.47;1806349;79;26682;-76
2021/01/05 08:38:11;;;;;;;2.60;0.93;;;;;;;4.24;100.00;102137.09;1806288;79;26663;-77
2021/01/05 08:40:41;;;;;;;4.73;1.10;;;;;;;4.33;100.00;102137.20;1806475;79;26224;-77
2021/01/05 08:43:11;;;;;;;7.53;1.47;;;;;;;4.32;100.00;102135.50;1806480;79;26228;-79
2021/01/05 08:45:42;;;;;;;3.57;1.30;;;;;;;4.37;100.00;102144.49;1806332;79;26314;-76
2021/01/05 08:48:13;;;;;;;3.30;1.10;;;;;;;4.40;100.00;102139.96;1806316;79;26228;-76
2021/01/05 08:50:43;;;;;;;6.57;1.60;;;;;;;4.43;100.00;102150.53;1806328;79;26263;-76
2021/01/05 08:53:14;;;;;;;3.90;1.30;;;;;;;4.43;100.00;102152.75;1806374;79;26719;-75
2021/01/05 08:55:44;;;;;;;3.20;1.53;;;;;;;4.36;100.00;102145.58;1806475;79;26237;-77
2021/01/05 08:58:14;;;;;;;3.37;1.47;;;;;;;4.48;100.00;102144.71;1806280;79;26299;-77
2021/01/05 09:00:44;;;;;;;7.30;0.97;;;;;;;4.44;100.00;102148.95;1806306;79;26674;-76
2021/01/05 09:03:14;;;;;;;3.87;1.67;;;;;;;4.51;100.00;102140.15;1806294;79;26299;-76
2021/01/05 09:05:45;;;;;;;3.73;1.17;;;;;;;4.51;100.00;102145.66;1806324;79;26298;-77
2021/01/05 09:08:15;;;;;;;4.93;1.30;;;;;;;4.57;100.00;102141.21;1806405;79;26232;-79
2021/01/05 09:10:46;;;;;;;2.97;1.27;;;;;;;4.56;100.00;102138.98;1806316;79;26404;-77
2021/01/05 09:13:16;;;;;;;2.97;1.10;;;;;;;4.62;100.00;102136.44;1806180;77;26355;-77
2021/01/05 09:15:47;;;;;;;5.70;1.30;;;;;;;4.63;100.00;102134.83;1806362;79;26668;-78
2021/01/05 09:18:17;;;;;;;4.93;1.37;;;;;;;4.64;100.00;102127.42;1806348;79;26224;-79
2021/01/05 09:20:50;;;;;;;4.17;1.00;;;;;;;4.60;100.00;102122.88;1806197;79;26224;-80
2021/01/05 09:23:23;;;;;;;3.37;1.00;;;;;;;4.64;100.00;102126.90;1806311;78;26793;-81
2021/01/05 09:25:55;;;;;;;3.43;1.30;;;;;;;4.64;100.00;102120.02;1806462;79;26683;-80
2021/01/05 09:28:27;;;;;;;6.97;2.30;;;;;;;4.68;100.00;102119.05;1806394;79;26319;-79
2021/01/05 09:30:57;;;;;;;3.53;1.40;;;;;;;4.72;100.00;102119.78;1806455;79;26236;-80
2021/01/05 09:33:27;;;;;;;4.07;1.40;;;;;;;4.77;100.00;102121.36;1806348;79;26302;-79
2021/01/05 09:35:57;;;;;;;4.73;1.40;;;;;;;4.77;100.00;102110.35;1806399;79;26306;-80
2021/01/05 09:38:27;;;;;;;3.90;1.40;;;;;;;4.73;100.00;102113.75;1806373;79;26687;-78
2021/01/05 09:40:57;;;;;;;6.17;1.60;;;;;;;4.70;100.00;102119.70;1806371;79;26797;-77
2021/01/05 09:43:27;;;;;;;4.57;1.27;;;;;;;4.77;100.00;102115.00;1806414;79;26282;-79
2021/01/05 09:45:58;;;;;;;3.93;1.40;;;;;;;4.76;100.00;102122.95;1806377;79;26781;-79
2021/01/05 09:48:28;;;;;;;3.37;1.20;;;;;;;4.78;100.00;102118.08;1806395;79;26228;-79
2021/01/05 09:50:58;;;;;;;7.00;1.40;;;;;;;4.81;100.00;102114.89;1806423;79;26302;-79
2021/01/05 09:53:28;;;;;;;3.27;1.30;;;;;;;4.84;100.00;102118.58;1806330;79;26753;-78
2021/01/05 09:55:58;;;;;;;4.50;1.47;;;;;;;4.88;100.00;102112.42;1806378;79;26228;-79
2021/01/05 09:58:28;;;;;;;4.20;1.10;;;;;;;4.81;100.00;102120.39;1806503;79;26648;-78
2021/01/05 10:00:58;;;;;;;3.83;1.40;;;;;;;4.83;100.00;102115.53;1806425;79;26279;-79
2021/01/05 10:03:27;;;;;;;3.63;1.53;;;;;;;4.84;100.00;102119.42;1806427;79;26327;-80
2021/01/05 10:05:57;;;;;;;4.33;1.20;;;;;;;4.84;100.00;102119.42;1806319;79;26790;-80
2021/01/05 10:08:28;;;;;;;4.90;1.30;;;;;;;4.89;100.00;102122.91;1806569;79;26220;-83
2021/01/05 10:10:59;;;;;;;4.17;1.30;;;;;;;4.79;100.00;102123.91;1806483;79;26678;-78
2021/01/05 10:13:29;;;;;;;6.43;1.30;;;;;;;4.77;100.00;102115.86;1806482;79;26683;-80
2021/01/05 10:15:58;;;;;;;6.23;1.47;;;;;;;4.78;100.00;102113.95;1806229;79;26679;-81
2021/01/05 10:18:28;;;;;;;5.57;1.20;;;;;;;4.71;100.00;102118.08;1806385;79;26290;-80
2021/01/05 10:20:58;;;;;;;3.80;1.10;;;;;;;4.76;100.00;102112.78;1806543;79;26228;-84
2021/01/05 10:23:28;;;;;;;5.03;1.67;;;;;;;4.77;100.00;102117.76;1806072;78;26271;-82
2021/01/05 10:25:58;;;;;;;3.03;1.00;;;;;;;4.86;100.00;102117.31;1806148;79;26776;-84
2021/01/05 10:28:28;;;;;;;4.93;1.40;;;;;;;4.88;100.00;102121.20;1806066;79;26279;-78
2021/01/05 10:31:00;;;;;;;9.10;1.30;;;;;;;4.83;100.00;102118.28;1806106;79;26619;-79
2021/01/05 10:33:30;;;;;;;4.57;1.43;;;;;;;4.89;100.00;102114.12;1806065;79;26310;-77
2021/01/05 10:36:01;;;;;;;3.13;1.00;;;;;;;4.96;100.00;102120.44;1806069;79;26354;-79
2021/01/05 10:38:31;;;;;;;3.90;1.30;;;;;;;5.03;100.00;102121.28;1805998;79;26295;-78
2021/01/05 10:41:01;;;;;;;5.23;1.50;;;;;;;5.04;100.00;102123.51;1806134;79;26232;-79
2021/01/05 10:43:31;;;;;;;3.03;1.27;;;;;;;5.13;100.00;102126.33;1806093;79;26239;-79
2021/01/05 10:46:01;;;;;;;5.03;1.37;;;;;;;5.14;100.00;102121.64;1806004;79;26302;-79
2021/01/05 10:48:30;;;;;;;3.33;1.33;;;;;;;5.28;100.00;102120.00;1806079;79;26216;-79
2021/01/05 10:51:00;;;;;;;5.07;1.70;;;;;;;5.26;100.00;102124.87;1806217;79;26293;-80
2021/01/05 10:53:30;;;;;;;4.20;1.20;;;;;;;5.19;100.00;102121.31;1805896;79;26306;-80
2021/01/05 10:56:00;;;;;;;4.07;1.23;;;;;;;5.32;100.00;102114.89;1806081;79;26288;-79
2021/01/05 10:58:30;;;;;;;4.77;1.73;;;;;;;5.27;100.00;102116.92;1806137;79;26298;-80
2021/01/05 11:01:00;;;;;;;5.97;1.30;;;;;;;5.35;100.00;102115.82;1806164;79;26699;-80
2021/01/05 11:03:30;;;;;;;2.00;1.20;;;;;;;5.29;100.00;102102.41;1806033;79;26216;-80
2021/01/05 11:06:00;;;;;;;3.73;1.20;;;;;;;5.36;100.00;102101.84;1805970;79;26399;-79
2021/01/05 11:08:30;;;;;;;4.30;1.83;;;;;;;5.41;100.00;102106.16;1805974;79;26341;-79
2021/01/05 11:11:00;;;;;;;3.93;1.20;;;;;;;5.43;100.00;102104.57;1805992;79;26313;-79
2021/01/05 11:13:31;;;;;;;3.23;1.33;;;;;;;5.48;100.00;102106.95;1805934;79;26372;-79
2021/01/05 11:16:01;;;;;;;3.57;1.30;;;;;;;5.50;100.00;102103.98;1806134;79;26227;-80
2021/01/05 11:18:30;;;;;;;4.23;1.40;;;;;;;5.50;100.00;102102.08;1806066;79;26228;-80
2021/01/05 11:21:00;;;;;;;4.27;1.40;;;;;;;5.54;100.00;102098.34;1806501;79;26236;-80
2021/01/05 11:23:30;;;;;;;6.17;1.50;;;;;;;5.55;100.00;102094.53;1806207;78;26256;-79
2021/01/05 11:26:00;;;;;;;7.77;2.03;;;;;;;5.55;100.00;102091.77;1806161;79;26317;-80
2021/01/05 11:28:30;;;;;;;4.23;1.63;;;;;;;5.51;100.00;102096.04;1806231;79;26290;-80
2021/01/05 11:31:00;;;;;;;3.77;1.47;;;;;;;5.50;100.00;102095.19;1806289;79;26224;-78
2021/01/05 11:33:30;;;;;;;4.40;1.43;;;;;;;5.47;100.00;102094.80;1806247;79;26294;-79
2021/01/05 11:36:00;;;;;;;2.83;1.30;;;;;;;5.53;100.00;102075.98;1806283;79;26672;-79
2021/01/05 11:38:30;;;;;;;4.90;1.53;;;;;;;5.55;100.00;102085.41;1806215;79;26228;-79
2021/01/05 11:41:00;;;;;;;5.63;1.50;;;;;;;5.60;100.00;102080.08;1806141;79;26642;-79
2021/01/05 11:43:30;;;;;;;7.63;1.50;;;;;;;5.57;100.00;102084.11;1806157;79;26217;-80
2021/01/05 11:45:59;;;;;;;5.73;1.23;;;;;;;5.55;100.00;102075.77;1806169;79;26752;-79
2021/01/05 11:48:29;;;;;;;3.07;1.30;;;;;;;5.50;100.00;102078.66;1806133;79;26678;-79
2021/01/05 11:50:59;;;;;;;9.77;1.83;;;;;;;5.49;100.00;102074.73;1806051;79;26286;-79
2021/01/05 11:53:30;;;;;;;4.47;1.60;;;;;;;5.52;100.00;102075.66;1806188;79;26707;-80